sensor_id;sensor_type;location;lat;lon;timestamp;P1;durP1;ratioP1;P2;durP2;ratioP2
46363;SDS011;32071;49.036;9.344;2023-04-24T00:02:13;2.20;;;1.40;;
46363;SDS011;32071;49.036;9.344;2023-04-24T00:04:39;2.20;;;1.10;;
46363;SDS011;32071;49.036;9.344;2023-04-24T00:07:06;0.90;;;0.90;;
46363;SDS011;32071;49.036;9.344;2023-04-24T00:09:32;2.77;;;1.30;;
46363;SDS011;32071;49.036;9.344;2023-04-24T00:11:58;1.23;;;1.13;;
46363;SDS011;32071;49.036;9.344;2023-04-24T00:14:24;1.43;;;1.10;;
46363;SDS011;32071;49.036;9.344;2023-04-24T00:16:50;1.70;;;1.20;;
46363;SDS011;32071;49.036;9.344;2023-04-24T00:19:15;1.07;;;0.97;;
46363;SDS011;32071;49.036;9.344;2023-04-24T00:21:41;1.17;;;1.10;;
46363;SDS011;32071;49.036;9.344;2023-04-24T00:24:07;1.30;;;1.20;;
46363;SDS011;32071;49.036;9.344;2023-04-24T00:26:34;2.63;;;1.23;;
46363;SDS011;32071;49.036;9.344;2023-04-24T00:28:59;1.03;;;0.93;;
46363;SDS011;32071;49.036;9.344;2023-04-24T00:31:25;3.30;;;1.03;;
46363;SDS011;32071;49.036;9.344;2023-04-24T00:33:50;2.10;;;1.37;;
46363;SDS011;32071;49.036;9.344;2023-04-24T00:36:16;1.20;;;1.00;;
46363;SDS011;32071;49.036;9.344;2023-04-24T00:38:44;1.93;;;1.13;;
46363;SDS011;32071;49.036;9.344;2023-04-24T00:41:09;1.37;;;1.27;;
46363;SDS011;32071;49.036;9.344;2023-04-24T00:43:35;1.00;;;1.00;;
46363;SDS011;32071;49.036;9.344;2023-04-24T00:46:01;1.53;;;1.40;;
46363;SDS011;32071;49.036;9.344;2023-04-24T00:48:26;1.23;;;1.13;;
46363;SDS011;32071;49.036;9.344;2023-04-24T00:50:52;1.40;;;1.30;;
46363;SDS011;32071;49.036;9.344;2023-04-24T00:53:18;1.40;;;1.30;;
46363;SDS011;32071;49.036;9.344;2023-04-24T00:55:44;3.37;;;1.30;;
46363;SDS011;32071;49.036;9.344;2023-04-24T00:58:10;1.20;;;1.10;;
46363;SDS011;32071;49.036;9.344;2023-04-24T01:00:36;1.37;;;1.10;;
46363;SDS011;32071;49.036;9.344;2023-04-24T01:03:01;1.37;;;1.27;;
46363;SDS011;32071;49.036;9.344;2023-04-24T01:05:30;3.47;;;1.50;;
46363;SDS011;32071;49.036;9.344;2023-04-24T01:07:57;1.53;;;1.27;;
46363;SDS011;32071;49.036;9.344;2023-04-24T01:10:24;6.40;;;1.63;;
46363;SDS011;32071;49.036;9.344;2023-04-24T01:12:51;2.17;;;1.23;;
46363;SDS011;32071;49.036;9.344;2023-04-24T01:15:17;1.33;;;1.20;;
46363;SDS011;32071;49.036;9.344;2023-04-24T01:17:42;1.30;;;1.17;;
46363;SDS011;32071;49.036;9.344;2023-04-24T01:20:08;2.53;;;1.00;;
46363;SDS011;32071;49.036;9.344;2023-04-24T01:22:34;2.13;;;1.10;;
46363;SDS011;32071;49.036;9.344;2023-04-24T01:25:00;1.73;;;1.30;;
46363;SDS011;32071;49.036;9.344;2023-04-24T01:27:26;2.63;;;1.23;;
46363;SDS011;32071;49.036;9.344;2023-04-24T01:29:52;3.00;;;1.50;;
46363;SDS011;32071;49.036;9.344;2023-04-24T01:32:18;1.70;;;0.90;;
46363;SDS011;32071;49.036;9.344;2023-04-24T01:34:44;1.23;;;1.13;;
46363;SDS011;32071;49.036;9.344;2023-04-24T01:37:10;1.33;;;1.23;;
46363;SDS011;32071;49.036;9.344;2023-04-24T01:39:36;1.93;;;1.30;;
46363;SDS011;32071;49.036;9.344;2023-04-24T01:42:02;2.20;;;1.40;;
46363;SDS011;32071;49.036;9.344;2023-04-24T01:44:29;1.13;;;1.03;;
46363;SDS011;32071;49.036;9.344;2023-04-24T01:46:55;1.47;;;1.37;;
46363;SDS011;32071;49.036;9.344;2023-04-24T01:49:21;1.70;;;1.33;;
46363;SDS011;32071;49.036;9.344;2023-04-24T01:51:47;1.30;;;1.20;;
46363;SDS011;32071;49.036;9.344;2023-04-24T01:54:13;3.53;;;1.20;;
46363;SDS011;32071;49.036;9.344;2023-04-24T01:56:42;1.70;;;1.30;;
46363;SDS011;32071;49.036;9.344;2023-04-24T01:59:09;1.70;;;1.33;;
46363;SDS011;32071;49.036;9.344;2023-04-24T02:01:36;2.30;;;1.47;;
46363;SDS011;32071;49.036;9.344;2023-04-24T02:04:03;1.50;;;1.40;;
46363;SDS011;32071;49.036;9.344;2023-04-24T02:06:29;1.20;;;1.10;;
46363;SDS011;32071;49.036;9.344;2023-04-24T02:08:57;2.03;;;1.40;;
46363;SDS011;32071;49.036;9.344;2023-04-24T02:11:23;2.10;;;1.00;;
46363;SDS011;32071;49.036;9.344;2023-04-24T02:13:49;2.37;;;1.40;;
46363;SDS011;32071;49.036;9.344;2023-04-24T02:16:15;4.27;;;1.40;;
46363;SDS011;32071;49.036;9.344;2023-04-24T02:18:40;3.43;;;1.30;;
46363;SDS011;32071;49.036;9.344;2023-04-24T02:21:06;1.37;;;1.23;;
46363;SDS011;32071;49.036;9.344;2023-04-24T02:23:32;2.50;;;1.50;;
46363;SDS011;32071;49.036;9.344;2023-04-24T02:25:57;1.70;;;1.60;;
46363;SDS011;32071;49.036;9.344;2023-04-24T02:28:23;4.37;;;1.70;;
46363;SDS011;32071;49.036;9.344;2023-04-24T02:30:48;3.63;;;1.53;;
46363;SDS011;32071;49.036;9.344;2023-04-24T02:33:15;3.80;;;1.30;;
46363;SDS011;32071;49.036;9.344;2023-04-24T02:35:41;1.90;;;1.77;;
46363;SDS011;32071;49.036;9.344;2023-04-24T02:38:06;1.80;;;1.70;;
46363;SDS011;32071;49.036;9.344;2023-04-24T02:40:32;1.93;;;1.47;;
46363;SDS011;32071;49.036;9.344;2023-04-24T02:42:57;1.37;;;1.27;;
46363;SDS011;32071;49.036;9.344;2023-04-24T02:45:23;1.40;;;1.30;;
46363;SDS011;32071;49.036;9.344;2023-04-24T02:47:49;4.30;;;1.30;;
46363;SDS011;32071;49.036;9.344;2023-04-24T02:50:14;2.00;;;1.40;;
46363;SDS011;32071;49.036;9.344;2023-04-24T02:52:40;4.23;;;1.33;;
46363;SDS011;32071;49.036;9.344;2023-04-24T02:55:05;1.23;;;1.13;;
46363;SDS011;32071;49.036;9.344;2023-04-24T02:57:32;2.03;;;1.03;;
46363;SDS011;32071;49.036;9.344;2023-04-24T02:59:58;1.10;;;1.00;;
46363;SDS011;32071;49.036;9.344;2023-04-24T03:02:24;1.27;;;1.13;;
46363;SDS011;32071;49.036;9.344;2023-04-24T03:04:50;1.10;;;1.00;;
46363;SDS011;32071;49.036;9.344;2023-04-24T03:07:15;0.83;;;0.80;;
46363;SDS011;32071;49.036;9.344;2023-04-24T03:09:41;1.40;;;1.03;;
46363;SDS011;32071;49.036;9.344;2023-04-24T03:12:07;2.00;;;0.80;;
46363;SDS011;32071;49.036;9.344;2023-04-24T03:14:32;2.93;;;1.23;;
46363;SDS011;32071;49.036;9.344;2023-04-24T03:16:58;3.53;;;0.83;;
46363;SDS011;32071;49.036;9.344;2023-04-24T03:19:24;2.13;;;1.00;;
46363;SDS011;32071;49.036;9.344;2023-04-24T03:21:49;2.20;;;0.97;;
46363;SDS011;32071;49.036;9.344;2023-04-24T03:24:15;1.87;;;1.03;;
46363;SDS011;32071;49.036;9.344;2023-04-24T03:26:41;1.10;;;1.00;;
46363;SDS011;32071;49.036;9.344;2023-04-24T03:29:06;1.40;;;1.00;;
46363;SDS011;32071;49.036;9.344;2023-04-24T03:31:32;1.57;;;0.80;;
46363;SDS011;32071;49.036;9.344;2023-04-24T03:33:57;2.00;;;1.00;;
46363;SDS011;32071;49.036;9.344;2023-04-24T03:36:23;1.53;;;1.10;;
46363;SDS011;32071;49.036;9.344;2023-04-24T03:38:49;1.53;;;1.10;;
46363;SDS011;32071;49.036;9.344;2023-04-24T03:41:14;1.63;;;1.37;;
46363;SDS011;32071;49.036;9.344;2023-04-24T03:43:40;1.17;;;0.90;;
46363;SDS011;32071;49.036;9.344;2023-04-24T03:46:05;1.30;;;1.00;;
46363;SDS011;32071;49.036;9.344;2023-04-24T03:48:31;0.90;;;0.90;;
46363;SDS011;32071;49.036;9.344;2023-04-24T03:50:57;2.40;;;1.00;;
46363;SDS011;32071;49.036;9.344;2023-04-24T03:53:23;1.07;;;0.93;;
46363;SDS011;32071;49.036;9.344;2023-04-24T03:55:48;2.03;;;1.10;;
46363;SDS011;32071;49.036;9.344;2023-04-24T03:58:14;3.00;;;1.40;;
46363;SDS011;32071;49.036;9.344;2023-04-24T04:00:39;1.20;;;1.10;;
46363;SDS011;32071;49.036;9.344;2023-04-24T04:03:05;1.30;;;1.20;;
46363;SDS011;32071;49.036;9.344;2023-04-24T04:05:31;2.53;;;1.10;;
46363;SDS011;32071;49.036;9.344;2023-04-24T04:07:57;1.53;;;1.23;;
46363;SDS011;32071;49.036;9.344;2023-04-24T04:10:22;1.23;;;1.07;;
46363;SDS011;32071;49.036;9.344;2023-04-24T04:12:48;3.63;;;0.97;;
46363;SDS011;32071;49.036;9.344;2023-04-24T04:15:13;3.90;;;1.13;;
46363;SDS011;32071;49.036;9.344;2023-04-24T04:17:39;1.13;;;0.90;;
46363;SDS011;32071;49.036;9.344;2023-04-24T04:20:05;2.30;;;1.20;;
46363;SDS011;32071;49.036;9.344;2023-04-24T04:22:34;1.53;;;1.17;;
46363;SDS011;32071;49.036;9.344;2023-04-24T04:25:00;1.67;;;1.23;;
46363;SDS011;32071;49.036;9.344;2023-04-24T04:27:26;2.60;;;1.50;;
46363;SDS011;32071;49.036;9.344;2023-04-24T04:29:51;2.27;;;1.27;;
46363;SDS011;32071;49.036;9.344;2023-04-24T04:32:17;1.90;;;1.43;;
46363;SDS011;32071;49.036;9.344;2023-04-24T04:34:43;2.77;;;1.77;;
46363;SDS011;32071;49.036;9.344;2023-04-24T04:37:10;1.57;;;1.30;;
46363;SDS011;32071;49.036;9.344;2023-04-24T04:39:37;2.17;;;1.43;;
46363;SDS011;32071;49.036;9.344;2023-04-24T04:42:03;0.90;;;0.90;;
46363;SDS011;32071;49.036;9.344;2023-04-24T04:44:28;1.33;;;1.23;;
46363;SDS011;32071;49.036;9.344;2023-04-24T04:46:55;2.13;;;1.40;;
46363;SDS011;32071;49.036;9.344;2023-04-24T04:49:21;1.40;;;1.30;;
46363;SDS011;32071;49.036;9.344;2023-04-24T04:51:48;1.50;;;1.40;;
46363;SDS011;32071;49.036;9.344;2023-04-24T04:54:15;2.00;;;1.37;;
46363;SDS011;32071;49.036;9.344;2023-04-24T04:56:41;3.50;;;1.70;;
46363;SDS011;32071;49.036;9.344;2023-04-24T04:59:07;2.30;;;2.10;;
46363;SDS011;32071;49.036;9.344;2023-04-24T05:01:32;2.10;;;1.63;;
46363;SDS011;32071;49.036;9.344;2023-04-24T05:03:58;1.43;;;1.33;;
46363;SDS011;32071;49.036;9.344;2023-04-24T05:06:23;2.40;;;1.40;;
46363;SDS011;32071;49.036;9.344;2023-04-24T05:08:50;1.67;;;1.30;;
46363;SDS011;32071;49.036;9.344;2023-04-24T05:11:16;2.57;;;1.40;;
46363;SDS011;32071;49.036;9.344;2023-04-24T05:13:41;2.00;;;1.80;;
46363;SDS011;32071;49.036;9.344;2023-04-24T05:16:07;2.63;;;1.67;;
46363;SDS011;32071;49.036;9.344;2023-04-24T05:18:32;1.77;;;1.50;;
46363;SDS011;32071;49.036;9.344;2023-04-24T05:20:58;2.13;;;1.63;;
46363;SDS011;32071;49.036;9.344;2023-04-24T05:23:23;1.67;;;1.57;;
46363;SDS011;32071;49.036;9.344;2023-04-24T05:25:49;5.73;;;2.80;;
46363;SDS011;32071;49.036;9.344;2023-04-24T05:28:15;2.80;;;2.60;;
46363;SDS011;32071;49.036;9.344;2023-04-24T05:30:40;3.70;;;3.10;;
46363;SDS011;32071;49.036;9.344;2023-04-24T05:33:06;2.90;;;2.60;;
46363;SDS011;32071;49.036;9.344;2023-04-24T05:35:33;2.53;;;2.30;;
46363;SDS011;32071;49.036;9.344;2023-04-24T05:37:59;2.37;;;2.10;;
46363;SDS011;32071;49.036;9.344;2023-04-24T05:40:24;2.00;;;1.80;;
46363;SDS011;32071;49.036;9.344;2023-04-24T05:42:50;1.77;;;1.67;;
46363;SDS011;32071;49.036;9.344;2023-04-24T05:45:16;1.97;;;1.80;;
46363;SDS011;32071;49.036;9.344;2023-04-24T05:47:43;2.50;;;2.00;;
46363;SDS011;32071;49.036;9.344;2023-04-24T05:50:09;2.83;;;2.17;;
46363;SDS011;32071;49.036;9.344;2023-04-24T05:52:35;2.20;;;2.00;;
46363;SDS011;32071;49.036;9.344;2023-04-24T05:55:01;2.40;;;2.20;;
46363;SDS011;32071;49.036;9.344;2023-04-24T05:57:26;2.13;;;1.97;;
46363;SDS011;32071;49.036;9.344;2023-04-24T05:59:52;2.50;;;1.80;;
46363;SDS011;32071;49.036;9.344;2023-04-24T06:02:17;2.97;;;2.20;;
46363;SDS011;32071;49.036;9.344;2023-04-24T06:04:43;3.13;;;2.73;;
46363;SDS011;32071;49.036;9.344;2023-04-24T06:07:12;3.20;;;2.47;;
46363;SDS011;32071;49.036;9.344;2023-04-24T06:09:38;2.70;;;2.40;;
46363;SDS011;32071;49.036;9.344;2023-04-24T06:12:03;4.20;;;2.60;;
46363;SDS011;32071;49.036;9.344;2023-04-24T06:14:29;3.73;;;2.73;;
46363;SDS011;32071;49.036;9.344;2023-04-24T06:16:55;3.63;;;2.80;;
46363;SDS011;32071;49.036;9.344;2023-04-24T06:19:20;4.10;;;3.00;;
46363;SDS011;32071;49.036;9.344;2023-04-24T06:21:46;3.00;;;2.70;;
46363;SDS011;32071;49.036;9.344;2023-04-24T06:24:13;3.57;;;3.27;;
46363;SDS011;32071;49.036;9.344;2023-04-24T06:26:39;4.07;;;2.93;;
46363;SDS011;32071;49.036;9.344;2023-04-24T06:29:06;4.33;;;3.83;;
46363;SDS011;32071;49.036;9.344;2023-04-24T06:31:32;10.13;;;7.30;;
46363;SDS011;32071;49.036;9.344;2023-04-24T06:34:01;6.03;;;4.30;;
46363;SDS011;32071;49.036;9.344;2023-04-24T06:36:27;6.40;;;3.57;;
46363;SDS011;32071;49.036;9.344;2023-04-24T06:38:53;6.60;;;3.30;;
46363;SDS011;32071;49.036;9.344;2023-04-24T06:41:19;4.43;;;3.30;;
46363;SDS011;32071;49.036;9.344;2023-04-24T06:43:45;4.30;;;3.40;;
46363;SDS011;32071;49.036;9.344;2023-04-24T06:46:10;3.50;;;3.03;;
46363;SDS011;32071;49.036;9.344;2023-04-24T06:48:37;5.27;;;2.80;;
46363;SDS011;32071;49.036;9.344;2023-04-24T06:51:02;4.30;;;3.00;;
46363;SDS011;32071;49.036;9.344;2023-04-24T06:53:28;5.60;;;3.13;;
46363;SDS011;32071;49.036;9.344;2023-04-24T06:55:53;3.47;;;2.57;;
46363;SDS011;32071;49.036;9.344;2023-04-24T06:58:19;4.00;;;2.70;;
46363;SDS011;32071;49.036;9.344;2023-04-24T07:00:45;3.10;;;2.77;;
46363;SDS011;32071;49.036;9.344;2023-04-24T07:03:11;3.67;;;2.80;;
46363;SDS011;32071;49.036;9.344;2023-04-24T07:05:36;3.40;;;2.80;;
46363;SDS011;32071;49.036;9.344;2023-04-24T07:08:03;5.43;;;2.97;;
46363;SDS011;32071;49.036;9.344;2023-04-24T07:10:28;3.60;;;3.07;;
46363;SDS011;32071;49.036;9.344;2023-04-24T07:12:55;3.73;;;3.00;;
46363;SDS011;32071;49.036;9.344;2023-04-24T07:15:21;4.53;;;3.10;;
46363;SDS011;32071;49.036;9.344;2023-04-24T07:17:48;5.43;;;3.50;;
46363;SDS011;32071;49.036;9.344;2023-04-24T07:20:13;3.87;;;2.90;;
46363;SDS011;32071;49.036;9.344;2023-04-24T07:22:39;3.93;;;3.30;;
46363;SDS011;32071;49.036;9.344;2023-04-24T07:25:05;3.10;;;2.80;;
46363;SDS011;32071;49.036;9.344;2023-04-24T07:27:32;2.97;;;2.73;;
46363;SDS011;32071;49.036;9.344;2023-04-24T07:29:59;2.90;;;2.70;;
46363;SDS011;32071;49.036;9.344;2023-04-24T07:32:24;4.17;;;3.00;;
46363;SDS011;32071;49.036;9.344;2023-04-24T07:34:50;2.60;;;2.40;;
46363;SDS011;32071;49.036;9.344;2023-04-24T07:37:15;8.53;;;2.70;;
46363;SDS011;32071;49.036;9.344;2023-04-24T07:39:41;2.73;;;2.53;;
46363;SDS011;32071;49.036;9.344;2023-04-24T07:42:07;3.47;;;2.53;;
46363;SDS011;32071;49.036;9.344;2023-04-24T07:44:32;10.43;;;2.40;;
46363;SDS011;32071;49.036;9.344;2023-04-24T07:46:58;3.10;;;2.50;;
46363;SDS011;32071;49.036;9.344;2023-04-24T07:49:24;2.77;;;2.47;;
46363;SDS011;32071;49.036;9.344;2023-04-24T07:51:49;2.50;;;2.30;;
46363;SDS011;32071;49.036;9.344;2023-04-24T07:54:15;3.03;;;2.03;;
46363;SDS011;32071;49.036;9.344;2023-04-24T07:56:41;2.70;;;2.47;;
46363;SDS011;32071;49.036;9.344;2023-04-24T07:59:08;2.73;;;2.30;;
46363;SDS011;32071;49.036;9.344;2023-04-24T08:01:34;2.77;;;2.20;;
46363;SDS011;32071;49.036;9.344;2023-04-24T08:04:00;4.50;;;2.20;;
46363;SDS011;32071;49.036;9.344;2023-04-24T08:06:26;3.17;;;2.87;;
46363;SDS011;32071;49.036;9.344;2023-04-24T08:08:58;3.13;;;2.77;;
46363;SDS011;32071;49.036;9.344;2023-04-24T08:11:24;2.80;;;2.50;;
46363;SDS011;32071;49.036;9.344;2023-04-24T08:13:50;4.50;;;2.67;;
46363;SDS011;32071;49.036;9.344;2023-04-24T08:16:16;2.70;;;1.97;;
46363;SDS011;32071;49.036;9.344;2023-04-24T08:18:41;2.37;;;2.17;;
46363;SDS011;32071;49.036;9.344;2023-04-24T08:21:07;2.80;;;1.80;;
46363;SDS011;32071;49.036;9.344;2023-04-24T08:23:32;3.37;;;1.87;;
46363;SDS011;32071;49.036;9.344;2023-04-24T08:25:58;1.77;;;1.67;;
46363;SDS011;32071;49.036;9.344;2023-04-24T08:28:25;1.87;;;1.77;;
46363;SDS011;32071;49.036;9.344;2023-04-24T08:30:51;2.37;;;2.03;;
46363;SDS011;32071;49.036;9.344;2023-04-24T08:33:22;1.70;;;1.60;;
46363;SDS011;32071;49.036;9.344;2023-04-24T08:35:48;1.93;;;1.73;;
46363;SDS011;32071;49.036;9.344;2023-04-24T08:38:13;1.80;;;1.70;;
46363;SDS011;32071;49.036;9.344;2023-04-24T08:40:39;1.77;;;1.63;;
46363;SDS011;32071;49.036;9.344;2023-04-24T08:43:05;3.13;;;1.60;;
46363;SDS011;32071;49.036;9.344;2023-04-24T08:45:32;1.90;;;1.60;;
46363;SDS011;32071;49.036;9.344;2023-04-24T08:47:58;2.70;;;1.83;;
46363;SDS011;32071;49.036;9.344;2023-04-24T08:50:24;1.43;;;1.33;;
46363;SDS011;32071;49.036;9.344;2023-04-24T08:52:50;3.93;;;2.20;;
46363;SDS011;32071;49.036;9.344;2023-04-24T08:55:18;1.90;;;1.80;;
46363;SDS011;32071;49.036;9.344;2023-04-24T08:57:45;2.97;;;1.70;;
46363;SDS011;32071;49.036;9.344;2023-04-24T09:00:16;1.40;;;1.30;;
46363;SDS011;32071;49.036;9.344;2023-04-24T09:02:42;2.53;;;2.33;;
46363;SDS011;32071;49.036;9.344;2023-04-24T09:05:08;3.07;;;1.77;;
46363;SDS011;32071;49.036;9.344;2023-04-24T09:07:35;1.87;;;1.57;;
46363;SDS011;32071;49.036;9.344;2023-04-24T09:10:04;1.83;;;1.60;;
46363;SDS011;32071;49.036;9.344;2023-04-24T09:12:31;2.27;;;2.07;;
46363;SDS011;32071;49.036;9.344;2023-04-24T09:14:57;2.10;;;2.00;;
46363;SDS011;32071;49.036;9.344;2023-04-24T09:17:24;2.63;;;1.70;;
46363;SDS011;32071;49.036;9.344;2023-04-24T09:19:52;1.93;;;1.60;;
46363;SDS011;32071;49.036;9.344;2023-04-24T09:22:17;1.83;;;1.67;;
46363;SDS011;32071;49.036;9.344;2023-04-24T09:24:43;1.40;;;1.30;;
46363;SDS011;32071;49.036;9.344;2023-04-24T09:27:10;1.40;;;1.30;;
46363;SDS011;32071;49.036;9.344;2023-04-24T09:29:37;1.07;;;1.07;;
46363;SDS011;32071;49.036;9.344;2023-04-24T09:32:21;1.20;;;1.03;;
46363;SDS011;32071;49.036;9.344;2023-04-24T09:35:12;2.37;;;1.50;;
46363;SDS011;32071;49.036;9.344;2023-04-24T09:37:39;1.40;;;1.30;;
46363;SDS011;32071;49.036;9.344;2023-04-24T09:42:59;2.03;;;1.67;;
46363;SDS011;32071;49.036;9.344;2023-04-24T09:45:27;1.70;;;1.57;;
46363;SDS011;32071;49.036;9.344;2023-04-24T09:47:59;2.50;;;1.67;;
46363;SDS011;32071;49.036;9.344;2023-04-24T09:50:25;1.87;;;1.70;;
46363;SDS011;32071;49.036;9.344;2023-04-24T09:52:57;1.90;;;1.70;;
46363;SDS011;32071;49.036;9.344;2023-04-24T09:55:26;2.33;;;1.70;;
46363;SDS011;32071;49.036;9.344;2023-04-24T09:57:54;2.93;;;2.27;;
46363;SDS011;32071;49.036;9.344;2023-04-24T10:00:26;2.23;;;2.03;;
46363;SDS011;32071;49.036;9.344;2023-04-24T10:02:56;4.37;;;2.37;;
46363;SDS011;32071;49.036;9.344;2023-04-24T10:05:23;2.60;;;1.90;;
46363;SDS011;32071;49.036;9.344;2023-04-24T10:07:50;3.33;;;1.50;;
46363;SDS011;32071;49.036;9.344;2023-04-24T10:10:16;1.60;;;1.50;;
46363;SDS011;32071;49.036;9.344;2023-04-24T10:12:42;1.70;;;1.60;;
46363;SDS011;32071;49.036;9.344;2023-04-24T10:15:09;1.70;;;1.60;;
46363;SDS011;32071;49.036;9.344;2023-04-24T10:17:37;1.70;;;1.60;;
46363;SDS011;32071;49.036;9.344;2023-04-24T10:20:04;2.13;;;1.93;;
46363;SDS011;32071;49.036;9.344;2023-04-24T10:22:31;7.43;;;2.07;;
46363;SDS011;32071;49.036;9.344;2023-04-24T10:24:57;3.00;;;2.10;;
46363;SDS011;32071;49.036;9.344;2023-04-24T10:27:24;2.43;;;1.70;;
46363;SDS011;32071;49.036;9.344;2023-04-24T10:29:52;2.40;;;1.97;;
46363;SDS011;32071;49.036;9.344;2023-04-24T10:32:18;2.83;;;2.10;;
46363;SDS011;32071;49.036;9.344;2023-04-24T10:34:44;2.23;;;2.00;;
46363;SDS011;32071;49.036;9.344;2023-04-24T10:37:10;2.57;;;2.33;;
46363;SDS011;32071;49.036;9.344;2023-04-24T10:39:35;2.37;;;2.17;;
46363;SDS011;32071;49.036;9.344;2023-04-24T10:42:11;4.10;;;2.77;;
46363;SDS011;32071;49.036;9.344;2023-04-24T10:44:40;3.87;;;3.10;;
46363;SDS011;32071;49.036;9.344;2023-04-24T10:47:06;4.20;;;2.83;;
46363;SDS011;32071;49.036;9.344;2023-04-24T10:49:38;5.20;;;3.60;;
46363;SDS011;32071;49.036;9.344;2023-04-24T10:52:05;5.83;;;3.70;;
46363;SDS011;32071;49.036;9.344;2023-04-24T11:02:45;2.77;;;2.57;;
46363;SDS011;32071;49.036;9.344;2023-04-24T11:05:17;4.20;;;2.80;;
46363;SDS011;32071;49.036;9.344;2023-04-24T11:10:39;3.20;;;2.90;;
46363;SDS011;32071;49.036;9.344;2023-04-24T11:13:06;3.20;;;2.93;;
46363;SDS011;32071;49.036;9.344;2023-04-24T11:15:32;3.03;;;2.73;;
46363;SDS011;32071;49.036;9.344;2023-04-24T11:17:57;3.20;;;2.90;;
46363;SDS011;32071;49.036;9.344;2023-04-24T11:20:23;2.60;;;2.40;;
46363;SDS011;32071;49.036;9.344;2023-04-24T11:22:52;4.50;;;3.17;;
46363;SDS011;32071;49.036;9.344;2023-04-24T11:25:22;2.97;;;2.60;;
46363;SDS011;32071;49.036;9.344;2023-04-24T11:27:48;3.13;;;2.83;;
46363;SDS011;32071;49.036;9.344;2023-04-24T11:30:18;2.80;;;2.40;;
46363;SDS011;32071;49.036;9.344;2023-04-24T11:32:48;2.53;;;2.33;;
46363;SDS011;32071;49.036;9.344;2023-04-24T11:35:22;5.07;;;2.80;;
46363;SDS011;32071;49.036;9.344;2023-04-24T11:37:50;5.67;;;2.93;;
46363;SDS011;32071;49.036;9.344;2023-04-24T11:40:20;3.57;;;3.00;;
46363;SDS011;32071;49.036;9.344;2023-04-24T11:42:51;5.00;;;2.40;;
46363;SDS011;32071;49.036;9.344;2023-04-24T11:45:18;4.70;;;2.10;;
46363;SDS011;32071;49.036;9.344;2023-04-24T11:47:49;4.07;;;2.80;;
46363;SDS011;32071;49.036;9.344;2023-04-24T11:50:16;5.80;;;3.37;;
46363;SDS011;32071;49.036;9.344;2023-04-24T11:52:43;2.50;;;2.40;;
46363;SDS011;32071;49.036;9.344;2023-04-24T11:55:32;2.87;;;2.67;;
46363;SDS011;32071;49.036;9.344;2023-04-24T11:57:58;3.30;;;2.47;;
46363;SDS011;32071;49.036;9.344;2023-04-24T12:00:28;5.20;;;3.27;;
46363;SDS011;32071;49.036;9.344;2023-04-24T12:03:06;8.20;;;3.27;;
46363;SDS011;32071;49.036;9.344;2023-04-24T12:05:36;4.47;;;3.17;;
46363;SDS011;32071;49.036;9.344;2023-04-24T12:08:02;3.20;;;2.57;;
46363;SDS011;32071;49.036;9.344;2023-04-24T12:10:28;3.70;;;3.40;;
46363;SDS011;32071;49.036;9.344;2023-04-24T12:12:56;4.97;;;3.37;;
46363;SDS011;32071;49.036;9.344;2023-04-24T12:15:22;4.80;;;3.47;;
46363;SDS011;32071;49.036;9.344;2023-04-24T12:17:50;4.53;;;3.17;;
46363;SDS011;32071;49.036;9.344;2023-04-24T12:20:16;4.70;;;4.03;;
46363;SDS011;32071;49.036;9.344;2023-04-24T12:22:52;4.90;;;3.77;;
46363;SDS011;32071;49.036;9.344;2023-04-24T12:25:22;5.40;;;3.60;;
46363;SDS011;32071;49.036;9.344;2023-04-24T12:27:53;6.03;;;4.50;;
46363;SDS011;32071;49.036;9.344;2023-04-24T12:30:20;6.20;;;3.90;;
46363;SDS011;32071;49.036;9.344;2023-04-24T12:32:47;5.10;;;3.67;;
46363;SDS011;32071;49.036;9.344;2023-04-24T12:35:21;4.10;;;3.70;;
46363;SDS011;32071;49.036;9.344;2023-04-24T12:37:48;4.23;;;3.83;;
46363;SDS011;32071;49.036;9.344;2023-04-24T12:40:14;4.30;;;3.40;;
46363;SDS011;32071;49.036;9.344;2023-04-24T12:42:47;4.97;;;3.77;;
46363;SDS011;32071;49.036;9.344;2023-04-24T12:45:14;4.20;;;3.67;;
46363;SDS011;32071;49.036;9.344;2023-04-24T12:47:42;5.33;;;3.73;;
46363;SDS011;32071;49.036;9.344;2023-04-24T12:50:12;3.17;;;2.87;;
46363;SDS011;32071;49.036;9.344;2023-04-24T12:52:39;5.20;;;2.97;;
46363;SDS011;32071;49.036;9.344;2023-04-24T12:55:06;4.47;;;3.70;;
46363;SDS011;32071;49.036;9.344;2023-04-24T12:57:36;4.70;;;4.03;;
46363;SDS011;32071;49.036;9.344;2023-04-24T13:00:03;5.20;;;3.90;;
46363;SDS011;32071;49.036;9.344;2023-04-24T13:02:30;4.10;;;3.30;;
46363;SDS011;32071;49.036;9.344;2023-04-24T13:04:56;3.70;;;3.33;;
46363;SDS011;32071;49.036;9.344;2023-04-24T13:07:25;4.33;;;3.40;;
46363;SDS011;32071;49.036;9.344;2023-04-24T13:09:52;4.33;;;3.80;;
46363;SDS011;32071;49.036;9.344;2023-04-24T13:12:19;6.10;;;4.50;;
46363;SDS011;32071;49.036;9.344;2023-04-24T13:14:45;6.43;;;4.40;;
46363;SDS011;32071;49.036;9.344;2023-04-24T13:17:10;5.30;;;4.50;;
46363;SDS011;32071;49.036;9.344;2023-04-24T13:19:38;5.37;;;4.73;;
46363;SDS011;32071;49.036;9.344;2023-04-24T13:22:06;5.27;;;4.33;;
46363;SDS011;32071;49.036;9.344;2023-04-24T13:24:32;5.07;;;4.50;;
46363;SDS011;32071;49.036;9.344;2023-04-24T13:26:58;4.73;;;4.00;;
46363;SDS011;32071;49.036;9.344;2023-04-24T13:29:23;5.23;;;3.93;;
46363;SDS011;32071;49.036;9.344;2023-04-24T13:31:52;5.50;;;4.27;;
46363;SDS011;32071;49.036;9.344;2023-04-24T13:34:24;6.53;;;4.23;;
46363;SDS011;32071;49.036;9.344;2023-04-24T13:36:52;6.43;;;4.90;;
46363;SDS011;32071;49.036;9.344;2023-04-24T13:39:19;5.17;;;4.57;;
46363;SDS011;32071;49.036;9.344;2023-04-24T13:41:45;5.20;;;4.70;;
46363;SDS011;32071;49.036;9.344;2023-04-24T13:44:12;5.73;;;4.20;;
46363;SDS011;32071;49.036;9.344;2023-04-24T13:46:38;4.60;;;3.70;;
46363;SDS011;32071;49.036;9.344;2023-04-24T13:49:04;4.73;;;3.60;;
46363;SDS011;32071;49.036;9.344;2023-04-24T13:51:29;4.37;;;3.70;;
46363;SDS011;32071;49.036;9.344;2023-04-24T13:53:55;3.93;;;3.30;;
46363;SDS011;32071;49.036;9.344;2023-04-24T13:56:21;5.80;;;4.47;;
46363;SDS011;32071;49.036;9.344;2023-04-24T13:58:47;5.10;;;3.53;;
46363;SDS011;32071;49.036;9.344;2023-04-24T14:01:13;4.10;;;3.67;;
46363;SDS011;32071;49.036;9.344;2023-04-24T14:03:39;4.93;;;4.37;;
46363;SDS011;32071;49.036;9.344;2023-04-24T14:06:05;6.67;;;4.20;;
46363;SDS011;32071;49.036;9.344;2023-04-24T14:08:31;4.13;;;3.47;;
46363;SDS011;32071;49.036;9.344;2023-04-24T14:10:57;4.70;;;3.40;;
46363;SDS011;32071;49.036;9.344;2023-04-24T14:13:22;3.37;;;3.07;;
46363;SDS011;32071;49.036;9.344;2023-04-24T14:15:48;3.53;;;3.23;;
46363;SDS011;32071;49.036;9.344;2023-04-24T14:18:14;3.47;;;3.17;;
46363;SDS011;32071;49.036;9.344;2023-04-24T14:20:39;4.07;;;3.47;;
46363;SDS011;32071;49.036;9.344;2023-04-24T14:23:05;4.47;;;3.40;;
46363;SDS011;32071;49.036;9.344;2023-04-24T14:25:31;4.10;;;3.70;;
46363;SDS011;32071;49.036;9.344;2023-04-24T14:27:56;7.10;;;3.37;;
46363;SDS011;32071;49.036;9.344;2023-04-24T14:30:22;3.70;;;3.40;;
46363;SDS011;32071;49.036;9.344;2023-04-24T14:32:48;4.20;;;3.57;;
46363;SDS011;32071;49.036;9.344;2023-04-24T14:35:13;7.93;;;3.97;;
46363;SDS011;32071;49.036;9.344;2023-04-24T14:37:39;4.20;;;3.80;;
46363;SDS011;32071;49.036;9.344;2023-04-24T14:40:06;3.47;;;3.17;;
46363;SDS011;32071;49.036;9.344;2023-04-24T14:42:33;6.80;;;3.20;;
46363;SDS011;32071;49.036;9.344;2023-04-24T14:44:59;3.30;;;3.00;;
46363;SDS011;32071;49.036;9.344;2023-04-24T14:47:24;3.30;;;3.00;;
46363;SDS011;32071;49.036;9.344;2023-04-24T14:49:50;3.50;;;3.03;;
46363;SDS011;32071;49.036;9.344;2023-04-24T14:52:16;3.67;;;3.23;;
46363;SDS011;32071;49.036;9.344;2023-04-24T14:54:42;3.93;;;3.63;;
46363;SDS011;32071;49.036;9.344;2023-04-24T14:57:07;3.90;;;3.60;;
46363;SDS011;32071;49.036;9.344;2023-04-24T14:59:33;4.00;;;3.60;;